Time;durP1;ratioP1;P1;durP2;ratioP2;P2;SDS_P1;SDS_P2;PMS_P1;PMS_P2;Temp;Humidity;BMP_temperature;BMP_pressure;BME280_temperature;BME280_humidity;BME280_pressure;Samples;Min_cycle;Max_cycle;Signal;HPM_P1;HPM_P2
2022/12/12 00:00:41;;;;;;;21.98;12.50;;;;;;;1.98;100.00;101053.88;5038368;28;20481;-62
2022/12/12 00:03:08;;;;;;;22.55;12.68;;;;;;;1.92;100.00;101051.59;5030927;28;20049;-62
2022/12/12 00:05:34;;;;;;;21.30;11.77;;;;;;;1.95;100.00;101057.44;5042037;28;20107;-63
2022/12/12 00:08:00;;;;;;;20.55;11.82;;;;;;;1.96;100.00;101055.66;5045354;28;20080;-63
2022/12/12 00:10:27;;;;;;;22.95;12.55;;;;;;;1.98;100.00;101053.88;5039160;28;20515;-64
2022/12/12 00:12:54;;;;;;;23.27;12.68;;;;;;;1.98;100.00;101059.03;5047152;28;20048;-64
2022/12/12 00:15:20;;;;;;;23.73;13.05;;;;;;;1.97;100.00;101052.19;5038583;28;20052;-63
2022/12/12 00:17:47;;;;;;;23.63;12.20;;;;;;;1.92;100.00;101057.63;5038538;28;20059;-63
2022/12/12 00:20:13;;;;;;;22.23;12.93;;;;;;;1.94;100.00;101052.34;5031926;28;20133;-63
2022/12/12 00:22:40;;;;;;;25.17;13.35;;;;;;;1.96;100.00;101059.13;5034579;28;23046;-63
2022/12/12 00:25:07;;;;;;;22.27;12.48;;;;;;;1.97;100.00;101055.59;5031735;28;20066;-63
2022/12/12 00:27:33;;;;;;;22.73;12.25;;;;;;;1.98;100.00;101056.44;5025797;28;20049;-63
2022/12/12 00:30:00;;;;;;;21.70;12.43;;;;;;;2.00;100.00;101056.34;5027029;28;20049;-63
2022/12/12 00:32:26;;;;;;;22.70;12.20;;;;;;;2.03;100.00;101063.94;5020647;28;20492;-64
2022/12/12 00:34:52;;;;;;;23.17;13.07;;;;;;;2.02;100.00;101060.53;5035127;28;20057;-62
2022/12/12 00:37:19;;;;;;;21.90;11.88;;;;;;;2.03;100.00;101054.41;5032018;28;20085;-62
2022/12/12 00:39:45;;;;;;;24.40;12.48;;;;;;;2.02;100.00;101055.34;5023575;28;20053;-63
2022/12/12 00:42:12;;;;;;;22.10;12.05;;;;;;;2.05;100.00;101062.94;5028840;28;20478;-62
2022/12/12 00:44:38;;;;;;;24.25;12.77;;;;;;;2.06;100.00;101066.34;5025333;28;20464;-62
2022/12/12 00:47:05;;;;;;;26.48;13.65;;;;;;;2.05;100.00;101070.69;5028746;28;20062;-63
2022/12/12 00:49:31;;;;;;;22.60;12.05;;;;;;;2.04;100.00;101076.81;5024784;28;20478;-63
2022/12/12 00:51:57;;;;;;;24.17;13.35;;;;;;;2.07;100.00;101073.19;5029362;28;20108;-62
2022/12/12 00:54:24;;;;;;;24.35;13.40;;;;;;;2.05;100.00;101070.69;5033823;28;20048;-62
2022/12/12 00:56:50;;;;;;;25.65;12.60;;;;;;;2.03;100.00;101066.53;5021484;28;20148;-63
2022/12/12 00:59:18;;;;;;;22.02;12.85;;;;;;;2.07;100.00;101075.78;5028831;28;20098;-62
2022/12/12 01:01:46;;;;;;;22.67;12.13;;;;;;;2.06;100.00;101080.13;5019999;28;20060;-63
2022/12/12 01:04:12;;;;;;;23.75;13.13;;;;;;;2.02;100.00;101075.19;5034136;28;20604;-62
2022/12/12 01:06:39;;;;;;;23.60;12.80;;;;;;;2.03;100.00;101084.66;5028177;28;20045;-62
2022/12/12 01:09:05;;;;;;;23.88;13.43;;;;;;;2.02;100.00;101081.22;5025727;28;20466;-63
2022/12/12 01:11:31;;;;;;;27.35;13.73;;;;;;;1.99;100.00;101076.22;5032841;28;20047;-62
2022/12/12 01:13:58;;;;;;;21.05;13.13;;;;;;;1.99;100.00;101078.81;5020944;28;20053;-62
2022/12/12 01:16:25;;;;;;;28.10;13.55;;;;;;;1.99;100.00;101083.97;5025365;28;20058;-64
2022/12/12 01:18:51;;;;;;;23.08;12.93;;;;;;;2.02;100.00;101085.56;5024265;28;20060;-64
2022/12/12 01:21:19;;;;;;;24.10;13.57;;;;;;;2.06;100.00;101089.63;5032237;28;20454;-63
2022/12/12 01:23:46;;;;;;;22.27;12.63;;;;;;;2.05;100.00;101087.97;5031560;28;20087;-62
2022/12/12 01:26:16;;;;;;;27.73;13.63;;;;;;;2.10;100.00;101091.16;5023822;28;20045;-63
2022/12/12 01:28:43;;;;;;;23.60;13.77;;;;;;;2.06;100.00;101095.66;5022395;28;20053;-63
2022/12/12 01:31:10;;;;;;;25.83;13.63;;;;;;;2.04;100.00;101099.25;5022080;28;20100;-63
2022/12/12 01:33:37;;;;;;;26.67;12.90;;;;;;;2.06;100.00;101099.97;5028518;28;20099;-62
2022/12/12 01:36:04;;;;;;;25.05;13.73;;;;;;;2.05;100.00;101098.34;5031022;28;20787;-62
2022/12/12 01:38:31;;;;;;;24.27;14.32;;;;;;;2.00;100.00;101096.00;5025459;28;20429;-62
2022/12/12 01:40:57;;;;;;;24.85;14.27;;;;;;;1.96;100.00;101100.50;5022944;28;20079;-64
2022/12/12 01:43:24;;;;;;;22.10;12.35;;;;;;;1.98;100.00;101105.63;5018652;28;20049;-63
2022/12/12 01:45:56;;;;;;;25.30;13.63;;;;;;;2.02;100.00;101107.09;5035894;28;20063;-63
2022/12/12 01:48:28;;;;;;;23.33;13.63;;;;;;;2.02;100.00;101108.84;5029460;28;20052;-63
2022/12/12 01:50:58;;;;;;;23.95;13.88;;;;;;;2.01;100.00;101102.84;5033671;28;20060;-64
2022/12/12 01:53:28;;;;;;;25.80;13.40;;;;;;;1.98;100.00;101103.84;5026947;28;20060;-64
2022/12/12 01:55:56;;;;;;;25.38;14.38;;;;;;;1.97;100.00;101103.94;5033856;28;20053;-63
2022/12/12 01:58:23;;;;;;;23.40;13.18;;;;;;;1.98;100.00;101106.44;5032632;28;20053;-62
2022/12/12 02:00:50;;;;;;;24.55;13.63;;;;;;;1.96;100.00;101100.50;5024724;28;20647;-63
2022/12/12 02:03:16;;;;;;;23.30;13.40;;;;;;;1.95;100.00;101101.41;5035115;28;20478;-63
2022/12/12 02:05:52;;;;;;;25.13;14.00;;;;;;;1.96;100.00;101107.41;5022061;28;20047;-63
2022/12/12 02:08:21;;;;;;;23.90;12.77;;;;;;;1.93;100.00;101102.44;5025504;28;20132;-63
2022/12/12 02:10:48;;;;;;;26.67;13.30;;;;;;;1.87;100.00;101105.34;5030902;28;20386;-62
2022/12/12 02:13:19;;;;;;;23.65;13.25;;;;;;;1.88;100.00;101101.84;5027374;28;20063;-62
2022/12/12 02:15:55;;;;;;;21.52;12.65;;;;;;;1.88;100.00;101110.44;5043074;28;20053;-62
2022/12/12 02:18:39;;;;;;;22.88;12.98;;;;;;;1.86;100.00;101103.66;5027953;28;20494;-63
2022/12/12 02:21:29;;;;;;;24.98;14.05;;;;;;;1.86;100.00;101109.69;5035334;28;20053;-64
2022/12/12 02:24:14;;;;;;;25.15;13.65;;;;;;;1.80;100.00;101110.00;5035808;28;20690;-62
2022/12/12 02:27:02;;;;;;;22.30;12.57;;;;;;;1.85;100.00;101105.44;5037127;28;20441;-62
2022/12/12 02:29:45;;;;;;;24.73;13.18;;;;;;;1.79;100.00;101108.34;5032886;28;20100;-62
2022/12/12 02:32:25;;;;;;;24.60;12.88;;;;;;;1.69;100.00;101115.75;5044501;28;20063;-63
2022/12/12 02:35:26;;;;;;;25.90;13.50;;;;;;;1.62;100.00;101118.75;5018728;28;20059;-63
2022/12/12 02:38:08;;;;;;;23.67;12.75;;;;;;;1.57;100.00;101117.25;5003128;28;20040;-62
2022/12/12 02:40:45;;;;;;;24.90;13.98;;;;;;;1.48;100.00;101116.91;5038608;28;20123;-63
2022/12/12 02:43:30;;;;;;;20.95;12.35;;;;;;;1.49;100.00;101122.00;5042317;28;20060;-63
2022/12/12 02:46:02;;;;;;;24.80;13.18;;;;;;;1.44;100.00;101121.41;5048751;28;20110;-63
2022/12/12 02:48:43;;;;;;;25.40;13.43;;;;;;;1.40;100.00;101121.66;5040152;28;20104;-63
2022/12/12 02:51:13;;;;;;;24.73;13.27;;;;;;;1.36;100.00;101116.63;5040294;28;20762;-64
2022/12/12 02:53:39;;;;;;;22.70;13.38;;;;;;;1.35;100.00;101111.53;5042847;28;20412;-62
2022/12/12 02:56:43;;;;;;;21.70;13.05;;;;;;;1.37;100.00;101117.44;5046249;28;20047;-62
2022/12/12 02:59:13;;;;;;;24.02;13.13;;;;;;;1.36;100.00;101119.22;5044489;28;20049;-63
2022/12/12 03:01:49;;;;;;;26.08;14.10;;;;;;;1.39;100.00;101120.78;5049873;28;20037;-63
2022/12/12 03:07:46;;;;;;;24.83;13.53;;;;;;;1.45;100.00;101120.50;5049757;28;20048;-63
2022/12/12 03:10:36;;;;;;;23.17;12.82;;;;;;;1.45;100.00;101114.47;5036988;28;20629;-63
2022/12/12 03:13:15;;;;;;;24.55;13.32;;;;;;;1.44;100.00;101112.81;5049588;28;20053;-63
2022/12/12 03:16:00;;;;;;;22.98;12.82;;;;;;;1.36;100.00;101111.44;5042431;28;20228;-63
2022/12/12 03:18:48;;;;;;;22.73;12.30;;;;;;;1.34;100.00;101113.28;5042807;28;20053;-63
2022/12/12 03:21:27;;;;;;;24.85;11.70;;;;;;;1.33;100.00;101114.22;5030438;28;20053;-63
2022/12/12 03:23:58;;;;;;;23.85;12.38;;;;;;;1.31;100.00;101118.63;5049235;28;20047;-62
2022/12/12 03:26:33;;;;;;;24.13;12.68;;;;;;;1.31;100.00;101115.19;5041231;28;20064;-64
2022/12/12 03:29:10;;;;;;;22.58;11.80;;;;;;;1.26;100.00;101115.44;5045423;28;20064;-64
2022/12/12 03:31:42;;;;;;;21.33;11.35;;;;;;;1.28;100.00;101120.53;5024829;28;20449;-63
2022/12/12 03:34:20;;;;;;;23.15;12.25;;;;;;;1.22;100.00;101123.44;5038515;28;20057;-63
2022/12/12 03:36:54;;;;;;;20.17;11.80;;;;;;;1.18;100.00;101117.59;5042959;28;20103;-63
2022/12/12 03:39:28;;;;;;;22.73;12.75;;;;;;;1.15;100.00;101120.31;5043086;28;20099;-64
2022/12/12 03:42:12;;;;;;;20.73;11.65;;;;;;;1.08;100.00;101119.81;5049465;28;20055;-63
2022/12/12 03:44:46;;;;;;;20.80;12.18;;;;;;;1.04;100.00;101120.00;5039715;28;20060;-63
2022/12/12 03:47:19;;;;;;;21.52;11.50;;;;;;;0.97;100.00;101122.09;5043720;28;20049;-63
2022/12/12 03:49:54;;;;;;;22.08;11.60;;;;;;;0.88;100.00;101119.94;5038208;28;20508;-63
2022/12/12 03:52:34;;;;;;;21.33;11.85;;;;;;;0.83;100.00;101120.19;5042326;28;20417;-63
2022/12/12 03:55:12;;;;;;;22.77;11.40;;;;;;;0.77;100.00;101125.66;5041649;28;20490;-63
2022/12/12 03:57:50;;;;;;;20.27;10.77;;;;;;;0.70;100.00;101121.72;5039296;28;20085;-63
2022/12/12 04:00:17;;;;;;;21.27;11.20;;;;;;;0.61;100.00;101125.59;5045577;28;20464;-63
2022/12/12 04:02:53;;;;;;;20.52;11.13;;;;;;;0.58;100.00;101123.13;5037017;28;20052;-63
2022/12/12 04:05:19;;;;;;;19.67;10.75;;;;;;;0.50;100.00;101128.66;5041470;28;20068;-63
2022/12/12 04:08:10;;;;;;;21.08;11.52;;;;;;;0.52;100.00;101133.78;5035754;28;20069;-63
2022/12/12 04:13:52;;;;;;;21.73;11.00;;;;;;;0.41;100.00;101128.28;5031757;28;20064;-63
2022/12/12 04:16:26;;;;;;;18.42;10.45;;;;;;;0.37;100.00;101127.59;5044178;28;20103;-63
2022/12/12 04:18:58;;;;;;;20.77;11.48;;;;;;;0.34;100.00;101138.06;5037980;28;20049;-63
2022/12/12 04:24:43;;;;;;;20.48;11.95;;;;;;;0.23;100.00;101130.81;5038281;28;20472;-63
2022/12/12 04:27:19;;;;;;;21.35;11.27;;;;;;;0.27;100.00;101137.50;5036890;28;20057;-63
2022/12/12 04:30:04;;;;;;;20.80;10.77;;;;;;;0.20;100.00;101130.97;5034085;28;20045;-63
2022/12/12 04:32:36;;;;;;;22.08;10.93;;;;;;;0.13;100.00;101127.00;5028674;28;20053;-63
2022/12/12 04:35:16;;;;;;;22.17;11.50;;;;;;;0.11;100.00;101131.41;5033262;28;20045;-63
2022/12/12 04:37:48;;;;;;;20.52;10.27;;;;;;;0.05;100.00;101135.09;5045661;28;20060;-63
2022/12/12 04:40:20;;;;;;;20.00;11.32;;;;;;;0.03;100.00;101136.09;5045569;28;20055;-63
2022/12/12 04:42:55;;;;;;;20.58;10.75;;;;;;;-0.01;100.00;101140.53;5032169;28;20133;-63
2022/12/12 04:45:26;;;;;;;18.95;10.57;;;;;;;-0.04;100.00;101145.84;5046627;28;20439;-63
2022/12/12 04:47:55;;;;;;;17.90;10.13;;;;;;;-0.05;100.00;101147.59;5042913;28;20083;-63
2022/12/12 04:50:27;;;;;;;20.85;10.88;;;;;;;-0.09;100.00;101145.22;5046367;28;20067;-63
2022/12/12 04:52:55;;;;;;;23.33;11.15;;;;;;;-0.10;100.00;101135.81;5042185;28;20044;-62
2022/12/12 04:55:33;;;;;;;22.02;11.43;;;;;;;-0.16;100.00;101136.09;5037026;28;20107;-62
2022/12/12 04:58:02;;;;;;;19.55;11.35;;;;;;;-0.16;100.00;101143.81;5035323;28;20055;-62
2022/12/12 05:00:33;;;;;;;21.20;11.45;;;;;;;-0.31;100.00;101127.31;5049121;28;20063;-63
2022/12/12 05:03:10;;;;;;;20.52;11.05;;;;;;;-0.18;100.00;101153.38;5045735;28;20108;-62
2022/12/12 05:05:46;;;;;;;19.33;9.70;;;;;;;-0.24;100.00;101157.88;5037833;28;20059;-62
2022/12/12 05:08:22;;;;;;;18.08;10.50;;;;;;;-0.26;100.00;101153.72;5038603;28;20098;-62
2022/12/12 05:10:58;;;;;;;17.50;10.13;;;;;;;-0.28;100.00;101156.34;5033553;28;20501;-63
2022/12/12 05:13:36;;;;;;;19.88;11.40;;;;;;;-0.32;100.00;101157.41;5053354;28;20063;-63
2022/12/12 05:16:11;;;;;;;21.55;11.57;;;;;;;-0.34;100.00;101155.81;5046009;28;20044;-62
2022/12/12 05:18:38;;;;;;;22.40;11.07;;;;;;;-0.38;100.00;101162.81;5040365;28;20061;-62
2022/12/12 05:21:04;;;;;;;19.95;10.77;;;;;;;-0.43;100.00;101160.47;5039678;28;20104;-62
2022/12/12 05:23:31;;;;;;;19.58;10.43;;;;;;;-0.45;100.00;101159.69;5044221;28;20053;-63
2022/12/12 05:26:05;;;;;;;18.92;10.13;;;;;;;-0.46;100.00;101164.91;5021689;28;20057;-62
2022/12/12 05:28:32;;;;;;;22.88;10.80;;;;;;;-0.50;100.00;101171.09;5044614;28;20056;-62
2022/12/12 05:30:58;;;;;;;20.48;10.73;;;;;;;-0.54;100.00;101174.72;5044940;28;20049;-62
2022/12/12 05:33:25;;;;;;;20.17;10.38;;;;;;;-0.58;100.00;101170.59;5042173;28;20497;-62
2022/12/12 05:35:51;;;;;;;21.10;11.05;;;;;;;-0.66;100.00;101173.50;5043855;28;20433;-62
2022/12/12 05:38:18;;;;;;;22.67;11.40;;;;;;;-0.72;100.00;101168.63;5045993;28;20064;-62
2022/12/12 05:40:44;;;;;;;21.25;10.63;;;;;;;-0.71;100.00;101171.09;5038273;28;20049;-62
2022/12/12 05:54:12;;;;;;;19.83;9.90;;;;;;;-0.85;100.00;101169.13;3827891;26;20121;-63
2022/12/12 05:56:39;;;;;;;20.83;9.93;;;;;;;-0.89;100.00;101179.63;4977067;28;20050;-63
2022/12/12 05:59:05;;;;;;;18.90;10.07;;;;;;;-0.93;100.00;101176.34;4985560;28;20050;-63
2022/12/12 06:01:31;;;;;;;21.75;10.63;;;;;;;-0.92;100.00;101175.44;4975247;28;20047;-63
2022/12/12 06:03:58;;;;;;;21.45;10.98;;;;;;;-0.97;100.00;101177.38;4976904;28;20453;-62
2022/12/12 06:06:24;;;;;;;21.60;10.55;;;;;;;-0.98;100.00;101185.16;4970949;28;20125;-64
2022/12/12 06:08:51;;;;;;;19.00;9.60;;;;;;;-1.03;100.00;101177.63;4972728;28;20439;-64
2022/12/12 06:11:17;;;;;;;21.67;10.88;;;;;;;-1.05;100.00;101182.81;4974092;28;20077;-63
2022/12/12 06:13:44;;;;;;;20.80;10.65;;;;;;;-1.05;100.00;101176.84;4987714;28;20290;-63
2022/12/12 06:16:15;;;;;;;21.65;10.60;;;;;;;-1.06;100.00;101172.59;4985947;28;20422;-64
2022/12/12 06:18:41;;;;;;;18.83;10.00;;;;;;;-1.12;100.00;101180.56;4976214;28;20054;-63
2022/12/12 06:21:11;;;;;;;21.35;10.52;;;;;;;-1.08;100.00;101182.97;4987760;28;20350;-63
2022/12/12 06:23:38;;;;;;;19.10;10.60;;;;;;;-1.11;100.00;101183.09;4985812;28;20061;-63
2022/12/12 06:26:07;;;;;;;22.43;10.33;;;;;;;-1.14;100.00;101183.19;4983200;28;20082;-63
2022/12/12 06:28:33;;;;;;;19.98;10.45;;;;;;;-1.18;100.00;101183.38;4988264;28;20054;-63
2022/12/12 06:31:00;;;;;;;23.08;11.23;;;;;;;-1.20;100.00;101179.16;4985122;28;20058;-63
2022/12/12 06:33:34;;;;;;;20.02;10.40;;;;;;;-1.17;100.00;101187.66;4967260;28;20054;-63
2022/12/12 06:36:10;;;;;;;20.52;11.23;;;;;;;-1.16;100.00;101184.16;4962440;28;20423;-63
2022/12/12 06:52:12;;;;;;;43.85;20.08;;;;;;;-1.36;100.00;101195.25;2768316;26;20055;-62
2022/12/12 06:54:39;;;;;;;32.42;16.05;;;;;;;-1.38;100.00;101199.63;4940055;28;20061;-63
2022/12/12 06:57:05;;;;;;;25.35;13.93;;;;;;;-1.42;100.00;101198.91;4935443;29;20445;-63
2022/12/12 06:59:32;;;;;;;27.27;13.60;;;;;;;-1.44;100.00;101201.53;4935226;28;20055;-62
2022/12/12 07:01:58;;;;;;;23.60;12.45;;;;;;;-1.47;100.00;101200.81;4946016;28;20059;-62
2022/12/12 07:04:25;;;;;;;23.55;12.43;;;;;;;-1.49;100.00;101207.75;4945461;29;20094;-63
2022/12/12 07:06:52;;;;;;;22.15;12.02;;;;;;;-1.52;100.00;101205.31;4944217;28;20051;-63
2022/12/12 07:09:19;;;;;;;19.15;10.52;;;;;;;-1.54;100.00;101207.13;4942722;28;20052;-63
2022/12/12 07:11:45;;;;;;;21.48;11.30;;;;;;;-1.52;100.00;101207.91;5031224;22;20486;-63
2022/12/12 07:14:12;;;;;;;22.48;10.55;;;;;;;-1.55;100.00;101206.25;4970492;28;20458;-63
2022/12/12 07:16:39;;;;;;;22.30;11.68;;;;;;;-1.57;100.00;101210.63;4980228;28;20054;-63
2022/12/12 07:19:05;;;;;;;20.75;11.10;;;;;;;-1.60;100.00;101214.16;4984893;28;20061;-63
2022/12/12 07:37:53;;;;;;;26.25;14.45;;;;;;;-1.57;100.00;101231.22;2539237;26;20070;-64
2022/12/12 07:43:07;;;;;;;27.10;12.70;;;;;;;-1.55;100.00;101229.41;4522031;22;20054;-63
2022/12/12 07:45:34;;;;;;;27.08;14.00;;;;;;;-1.50;100.00;101239.53;4997372;28;20050;-64
2022/12/12 07:48:00;;;;;;;35.28;16.83;;;;;;;-1.48;100.00;101241.16;5006619;28;20058;-63
2022/12/12 07:50:27;;;;;;;30.95;14.85;;;;;;;-1.52;100.00;101239.59;5007678;28;20061;-63
2022/12/12 07:52:53;;;;;;;32.30;16.10;;;;;;;-1.51;100.00;101241.28;5006848;28;20185;-63
2022/12/12 07:55:20;;;;;;;33.15;16.50;;;;;;;-1.59;100.00;101245.88;5008898;28;20058;-63
2022/12/12 07:57:48;;;;;;;29.65;15.25;;;;;;;-1.68;100.00;101248.81;4967079;28;20053;-64
2022/12/12 08:00:15;;;;;;;32.13;14.60;;;;;;;-1.71;100.00;101257.44;5002642;28;20154;-63
2022/12/12 08:02:42;;;;;;;30.63;14.32;;;;;;;-1.76;100.00;101264.53;5000204;28;20112;-63
2022/12/12 08:05:08;;;;;;;32.92;15.50;;;;;;;-1.74;100.00;101260.16;4987383;28;20050;-63
2022/12/12 08:07:35;;;;;;;31.45;15.50;;;;;;;-1.74;100.00;101261.91;4999526;28;20508;-63
2022/12/12 08:10:03;;;;;;;36.33;15.68;;;;;;;-1.78;100.00;101263.75;5008621;28;20100;-63
2022/12/12 08:12:30;;;;;;;32.38;15.98;;;;;;;-1.82;100.00;101262.19;5005409;28;20042;-63
2022/12/12 08:14:56;;;;;;;31.20;16.35;;;;;;;-1.81;100.00;101263.84;4981045;28;20181;-63
2022/12/12 08:17:23;;;;;;;30.25;15.10;;;;;;;-1.74;100.00;101260.16;5004805;28;20729;-63
2022/12/12 08:19:50;;;;;;;30.30;14.98;;;;;;;-1.67;100.00;101271.88;4998951;28;20049;-63
2022/12/12 08:22:17;;;;;;;33.70;16.25;;;;;;;-1.61;100.00;101274.25;5004874;28;20056;-63
2022/12/12 10:17:41;;;;;;;32.45;15.02;;;;;;;-1.19;100.00;101280.38;4832023;26;20065;-63
2022/12/12 10:20:24;;;;;;;33.20;15.50;;;;;;;-1.12;100.00;101281.81;4986835;28;20050;-64
2022/12/12 11:26:03;;;;;;;25.63;12.43;;;;;;;0.00;100.00;101242.81;4500049;26;20068;-64
2022/12/12 11:28:36;;;;;;;23.83;11.93;;;;;;;-0.04;100.00;101238.69;4983602;28;20129;-64
2022/12/12 11:31:09;;;;;;;29.92;12.65;;;;;;;-0.04;100.00;101226.63;4992979;28;20046;-64
2022/12/12 11:33:45;;;;;;;27.83;13.32;;;;;;;0.07;100.00;101238.22;4987160;28;20418;-64
2022/12/12 11:36:18;;;;;;;30.38;12.20;;;;;;;0.11;100.00;101244.91;4980632;28;20065;-65
2022/12/12 11:38:48;;;;;;;26.08;13.23;;;;;;;0.07;100.00;101238.22;4995518;28;20133;-64
2022/12/12 11:41:15;;;;;;;30.40;13.63;;;;;;;0.12;100.00;101241.44;4993900;28;20057;-64
2022/12/12 11:43:54;;;;;;;27.92;13.10;;;;;;;0.07;100.00;101239.03;4984247;28;20043;-65
2022/12/12 11:46:27;;;;;;;;;;;;;;;0.13;100.00;101243.09;4988443;28;20061;-64
2022/12/12 11:49:03;;;;;;;27.25;12.23;;;;;;;0.18;100.00;101234.25;4986910;28;19986;-64
2022/12/12 11:51:31;;;;;;;24.77;11.75;;;;;;;0.28;100.00;101239.81;4977544;28;20105;-64
2022/12/12 11:53:59;;;;;;;25.42;12.18;;;;;;;0.33;100.00;101242.19;4988532;28;20061;-65
2022/12/12 11:56:37;;;;;;;26.88;11.70;;;;;;;0.43;100.00;101248.59;4986415;28;20745;-64
2022/12/12 11:59:10;;;;;;;28.15;11.10;;;;;;;0.51;100.00;101240.50;4996960;28;20530;-64
2022/12/12 12:15:34;;;;;;;25.30;11.48;;;;;;;0.85;100.00;101229.44;3298646;26;20047;-64
2022/12/12 12:18:13;;;;;;;19.77;9.77;;;;;;;0.91;100.00;101229.13;4981509;28;20102;-64
2022/12/12 12:20:56;;;;;;;;;;;;;;;1.04;100.00;101229.38;4979185;28;20062;-64
2022/12/12 12:23:37;;;;;;;21.35;9.95;;;;;;;1.14;100.00;101222.84;4980052;28;19926;-64
2022/12/12 12:26:24;;;;;;;21.35;9.00;;;;;;;1.26;100.00;101230.91;4988447;28;20058;-64
2022/12/12 12:29:24;;;;;;;18.58;9.23;;;;;;;1.41;100.00;101224.94;4987274;28;20085;-64
2022/12/12 12:32:05;;;;;;;20.90;10.27;;;;;;;1.45;96.71;101226.50;4984959;28;20061;-63
2022/12/12 12:35:02;;;;;;;16.17;8.40;;;;;;;1.52;100.00;101227.00;4986096;28;20046;-64
2022/12/12 12:38:03;;;;;;;19.83;9.98;;;;;;;1.61;100.00;101221.38;4983507;28;20058;-65
2022/12/12 12:40:43;;;;;;;17.77;9.05;;;;;;;1.62;100.00;101225.59;4987482;28;20058;-65
2022/12/12 12:43:34;;;;;;;21.63;9.52;;;;;;;1.66;97.24;101226.28;4977933;28;20109;-64
2022/12/12 12:46:11;;;;;;;21.15;10.70;;;;;;;1.78;100.00;101223.91;4984538;28;20050;-63
2022/12/12 12:48:49;;;;;;;21.75;10.90;;;;;;;1.83;100.00;101234.03;4975652;28;20054;-63
2022/12/12 12:51:23;;;;;;;20.95;10.48;;;;;;;1.91;100.00;101234.44;4988460;28;20050;-63
2022/12/12 12:54:12;;;;;;;20.83;10.07;;;;;;;2.01;100.00;101232.22;4988875;28;20112;-63
2022/12/12 12:56:42;;;;;;;;;;;;;;;2.06;98.83;101235.41;4978073;28;20054;-64
2022/12/12 12:59:16;;;;;;;20.42;10.55;;;;;;;1.97;95.41;101234.13;4989640;28;19936;-63
2022/12/12 13:01:46;;;;;;;20.27;9.93;;;;;;;2.11;95.84;101229.97;4990607;28;20060;-64
2022/12/12 13:04:35;;;;;;;33.55;11.20;;;;;;;2.14;95.34;101227.22;4989726;28;20121;-64
2022/12/12 13:07:21;;;;;;;19.42;10.32;;;;;;;2.13;93.12;101228.97;4991885;28;20072;-64
2022/12/12 13:09:59;;;;;;;25.17;11.15;;;;;;;2.11;93.39;101219.63;4986816;28;20100;-65
2022/12/12 13:12:29;;;;;;;27.88;11.35;;;;;;;2.14;96.83;101217.72;5002686;28;20106;-65
2022/12/12 13:15:19;;;;;;;22.40;11.13;;;;;;;2.13;96.94;101215.19;4999980;28;20046;-65
2022/12/12 13:18:15;;;;;;;18.75;10.50;;;;;;;2.21;97.21;101212.19;4979358;28;20046;-65
2022/12/12 13:20:56;;;;;;;23.52;11.45;;;;;;;2.32;99.96;101205.53;4995876;28;20049;-66
2022/12/12 13:24:04;;;;;;;25.60;10.98;;;;;;;2.42;100.00;101213.63;4994403;28;20055;-65
2022/12/12 13:26:46;;;;;;;22.27;10.05;;;;;;;2.27;93.02;101206.69;4987762;28;20475;-65
2022/12/12 13:29:31;;;;;;;22.50;11.07;;;;;;;2.33;97.24;101206.34;4993724;28;20495;-65
2022/12/12 13:31:57;;;;;;;22.33;10.85;;;;;;;2.28;97.57;101206.59;4993065;28;20046;-64
2022/12/12 13:34:27;;;;;;;22.95;10.75;;;;;;;2.35;97.32;101207.97;4988076;28;20735;-64
2022/12/12 13:36:56;;;;;;;21.83;10.85;;;;;;;2.43;98.61;101210.13;4992456;28;20050;-64
2022/12/12 13:39:25;;;;;;;;;;;;;;;2.42;97.21;101213.63;4992255;28;20061;-65
2022/12/12 13:41:54;;;;;;;23.48;11.35;;;;;;;2.46;99.25;101222.06;4983909;28;19926;-65
2022/12/12 13:44:39;;;;;;;25.65;11.73;;;;;;;2.43;97.01;101223.06;4974274;28;20046;-65
2022/12/12 13:47:21;;;;;;;20.27;10.43;;;;;;;2.40;96.62;101219.81;4992851;28;20053;-63
2022/12/12 13:49:51;;;;;;;22.88;12.25;;;;;;;2.30;92.15;101219.47;4989816;28;20568;-64
2022/12/12 13:52:31;;;;;;;24.63;12.85;;;;;;;2.33;97.30;101230.50;4979091;28;20055;-65
2022/12/12 13:55:10;;;;;;;22.65;11.90;;;;;;;2.20;94.77;101226.91;4985866;28;20745;-64
2022/12/12 13:57:57;;;;;;;22.50;11.93;;;;;;;2.22;98.10;101230.25;4986370;28;20054;-64
2022/12/12 14:00:29;;;;;;;20.67;10.73;;;;;;;2.07;99.13;101218.13;4977209;28;20069;-64
2022/12/12 14:02:59;;;;;;;19.52;10.18;;;;;;;1.97;95.53;101215.19;4988116;28;20054;-64
2022/12/12 14:05:29;;;;;;;25.52;11.68;;;;;;;2.00;99.43;101215.03;4989944;28;20137;-63
2022/12/12 14:08:12;;;;;;;22.83;10.50;;;;;;;1.90;97.90;101219.00;4986560;28;20129;-64
2022/12/12 14:10:43;;;;;;;21.33;9.82;;;;;;;1.78;99.54;101212.72;4987857;28;20125;-65
2022/12/12 14:13:17;;;;;;;21.90;10.88;;;;;;;1.75;99.75;101210.31;4987020;28;20116;-64
2022/12/12 14:15:47;;;;;;;22.45;10.90;;;;;;;1.72;100.00;101211.28;4985928;28;20062;-64
2022/12/12 14:18:39;;;;;;;22.45;10.90;;;;;;;1.74;100.00;101208.63;4987166;28;20398;-65
2022/12/12 14:21:10;;;;;;;21.85;10.90;;;;;;;1.73;100.00;101199.22;4982892;28;20402;-65
2022/12/12 14:23:41;;;;;;;22.65;11.00;;;;;;;1.71;100.00;101195.88;4987478;28;20082;-64
2022/12/12 14:26:26;;;;;;;27.48;10.43;;;;;;;1.70;100.00;101201.94;4982363;28;20058;-65
2022/12/12 14:29:15;;;;;;;21.10;10.82;;;;;;;1.67;100.00;101208.13;4974357;28;20046;-65
2022/12/12 14:32:07;;;;;;;23.27;10.45;;;;;;;1.68;100.00;101211.53;4982644;28;20379;-66
2022/12/12 14:34:33;;;;;;;23.17;12.05;;;;;;;1.63;100.00;101216.09;4968434;28;20055;-64
2022/12/12 14:37:12;;;;;;;21.98;11.07;;;;;;;1.56;100.00;101224.16;4985772;28;20054;-65
2022/12/12 14:39:48;;;;;;;;;;;;;;;1.56;100.00;101226.75;4982576;28;20207;-65
2022/12/12 14:42:26;;;;;;;20.17;11.18;;;;;;;1.55;100.00;101230.28;4983379;28;19992;-64
2022/12/12 14:45:23;;;;;;;23.85;10.32;;;;;;;1.54;100.00;101218.25;4985647;28;20054;-65
2022/12/12 14:48:13;;;;;;;24.63;10.65;;;;;;;1.47;100.00;101216.91;4981388;28;20054;-64
2022/12/12 14:50:50;;;;;;;20.00;10.30;;;;;;;1.44;100.00;101226.56;4983391;28;20053;-65
2022/12/12 14:53:20;;;;;;;24.83;10.82;;;;;;;1.41;100.00;101224.94;4978240;28;20052;-64
2022/12/12 14:55:51;;;;;;;21.48;10.77;;;;;;;1.38;100.00;101222.53;4988634;28;20414;-65
2022/12/12 14:58:20;;;;;;;21.52;11.07;;;;;;;1.34;100.00;101223.59;4987580;28;20118;-65
2022/12/12 15:00:50;;;;;;;21.02;10.80;;;;;;;1.30;100.00;101225.50;4984016;28;20518;-64
2022/12/12 15:03:23;;;;;;;21.85;10.70;;;;;;;1.24;100.00;101236.16;4989439;28;20109;-65
2022/12/12 15:06:18;;;;;;;20.02;11.10;;;;;;;1.20;100.00;101229.47;4985965;28;20062;-65
2022/12/12 15:19:49;;;;;;;20.98;10.82;;;;;;;1.06;100.00;101253.41;3027312;26;20060;-64
2022/12/12 15:22:32;;;;;;;20.33;10.25;;;;;;;1.04;100.00;101250.06;4969986;28;20542;-66
2022/12/12 15:25:01;;;;;;;20.95;11.68;;;;;;;0.98;100.00;101258.06;4976106;28;20043;-65
2022/12/12 15:27:35;;;;;;;20.23;10.50;;;;;;;0.92;100.00;101255.78;4977930;28;20055;-65
2022/12/12 15:30:39;;;;;;;19.30;11.00;;;;;;;0.87;100.00;101265.53;4967702;28;20050;-65
2022/12/12 15:33:17;;;;;;;22.33;10.77;;;;;;;0.79;100.00;101258.97;4972781;28;20046;-64
2022/12/12 15:35:48;;;;;;;;;;;;;;;0.73;100.00;101263.59;4962125;28;20043;-64
2022/12/12 15:38:14;;;;;;;21.10;10.45;;;;;;;0.62;100.00;101266.66;4952988;28;19945;-64
2022/12/12 15:40:46;;;;;;;20.77;10.85;;;;;;;0.54;100.00;101256.69;4951994;28;20046;-67
2022/12/12 15:43:16;;;;;;;24.05;11.77;;;;;;;0.50;100.00;101264.66;4969753;28;20047;-66
2022/12/12 15:45:49;;;;;;;20.55;10.52;;;;;;;0.46;100.00;101269.13;4971093;28;20065;-65
2022/12/12 15:48:17;;;;;;;21.75;10.10;;;;;;;0.41;100.00;101265.06;4980261;28;20140;-65
2022/12/12 15:50:44;;;;;;;27.02;10.43;;;;;;;0.32;100.00;101268.91;4973653;28;20059;-65